createdAt,value
2018-03-18T00:00:22.649Z,66.19
2018-03-18T00:02:51.675Z,65.13
2018-03-18T00:05:19.931Z,66.05
2018-03-18T00:07:48.969Z,64.82
2018-03-18T00:10:17.228Z,64.62
2018-03-18T00:12:46.247Z,64.67
2018-03-18T00:15:14.520Z,64.55
2018-03-18T00:17:44.290Z,65.99
2018-03-18T00:20:12.553Z,66.49
2018-03-18T00:22:40.806Z,63.25
2018-03-18T00:25:09.092Z,65.41
2018-03-18T00:27:37.352Z,66.50
2018-03-18T00:30:05.614Z,65.86
2018-03-18T00:32:33.875Z,65.52
2018-03-18T00:35:02.919Z,66.09
2018-03-18T00:37:31.184Z,65.36
2018-03-18T00:39:59.450Z,64.16
2018-03-18T00:42:27.707Z,62.92
2018-03-18T00:44:55.963Z,64.32
2018-03-18T00:47:24.222Z,64.19
2018-03-18T00:49:53.255Z,65.53
2018-03-18T00:52:21.515Z,66.46
2018-03-18T00:54:50.555Z,66.43
2018-03-18T00:57:18.884Z,66.03
2018-03-18T00:59:47.835Z,66.11
2018-03-18T01:02:16.112Z,67.54
2018-03-18T01:04:45.142Z,66.41
2018-03-18T01:07:13.399Z,66.50
2018-03-18T01:09:41.686Z,66.08
2018-03-18T01:12:10.702Z,66.63
2018-03-18T01:14:39.744Z,67.04
2018-03-18T01:17:08.002Z,66.72
2018-03-18T01:19:36.267Z,67.46
2018-03-18T01:22:05.291Z,67.40
2018-03-18T01:24:34.343Z,67.53
2018-03-18T01:27:02.608Z,67.73
2018-03-18T01:29:30.888Z,67.23
2018-03-18T01:31:59.147Z,68.42
2018-03-18T01:34:27.413Z,67.94
2018-03-18T01:36:55.680Z,68.69
2018-03-18T01:39:24.711Z,68.99
2018-03-18T01:41:52.967Z,68.80
2018-03-18T01:44:21.241Z,69.66
2018-03-18T01:46:49.500Z,69.42
2018-03-18T01:49:18.530Z,68.95
2018-03-18T01:51:46.782Z,68.93
2018-03-18T01:54:15.051Z,68.69
2018-03-18T01:56:43.306Z,70.12
2018-03-18T01:59:11.571Z,70.39
2018-03-18T02:01:39.831Z,70.34
2018-03-18T02:04:08.110Z,70.48
2018-03-18T02:06:36.374Z,70.02
2018-03-18T02:09:04.672Z,70.31
2018-03-18T02:11:32.932Z,69.39
2018-03-18T02:14:01.967Z,69.65
2018-03-18T02:16:30.215Z,68.96
2018-03-18T02:18:58.485Z,67.97
2018-03-18T02:21:27.513Z,69.04
2018-03-18T02:23:55.787Z,67.98
2018-03-18T02:26:24.806Z,68.15
2018-03-18T02:28:53.843Z,69.36
2018-03-18T02:31:22.095Z,70.03
2018-03-18T02:33:50.373Z,70.96
2018-03-18T02:36:19.428Z,71.11
2018-03-18T02:38:47.683Z,70.57
2018-03-18T02:41:15.961Z,69.71
2018-03-18T02:43:44.970Z,70.84
2018-03-18T02:46:13.248Z,70.59
2018-03-18T02:48:42.269Z,70.32
2018-03-18T02:51:10.526Z,70.02
2018-03-18T02:53:38.788Z,70.20
2018-03-18T02:56:07.061Z,70.74
2018-03-18T02:58:35.309Z,70.84
2018-03-18T03:01:04.343Z,70.64
2018-03-18T03:03:32.599Z,70.63
2018-03-18T03:06:01.633Z,69.93
2018-03-18T03:08:29.905Z,69.61
2018-03-18T03:10:58.870Z,69.60
2018-03-18T03:13:27.136Z,69.98
2018-03-18T03:15:55.398Z,69.73
2018-03-18T03:18:23.663Z,69.02
2018-03-18T03:20:52.704Z,69.87
2018-03-18T03:23:20.959Z,68.77
2018-03-18T03:25:49.995Z,68.76
2018-03-18T03:28:18.257Z,68.83
2018-03-18T03:30:47.289Z,67.57
2018-03-18T03:33:15.544Z,68.14
2018-03-18T03:35:44.570Z,68.17
2018-03-18T03:38:12.843Z,66.82
2018-03-18T03:40:41.875Z,67.77
2018-03-18T03:43:10.126Z,68.11
2018-03-18T03:45:39.164Z,67.12
2018-03-18T03:48:07.427Z,65.88
2018-03-18T03:50:36.454Z,66.08
2018-03-18T03:53:04.728Z,66.11
2018-03-18T03:55:33.755Z,66.35
2018-03-18T03:58:02.020Z,67.28
2018-03-18T04:00:31.059Z,66.22
2018-03-18T04:02:59.316Z,64.63
2018-03-18T04:05:28.358Z,64.11
2018-03-18T04:07:56.619Z,66.41
2018-03-18T04:10:24.899Z,65.40
2018-03-18T04:12:53.915Z,66.07
2018-03-18T04:15:22.183Z,65.60
2018-03-18T04:17:51.209Z,65.71
2018-03-18T04:20:19.482Z,66.77
2018-03-18T04:22:48.503Z,66.89
2018-03-18T04:25:16.771Z,65.63
2018-03-18T04:27:45.791Z,66.76
2018-03-18T04:30:14.051Z,66.12
2018-03-18T04:32:42.313Z,65.92
2018-03-18T04:35:10.574Z,64.63
2018-03-18T04:37:38.843Z,65.47
2018-03-18T04:40:07.111Z,64.94
2018-03-18T04:42:36.134Z,64.94
2018-03-18T04:45:05.172Z,64.61
2018-03-18T04:47:33.433Z,63.19
2018-03-18T04:50:01.702Z,63.20
2018-03-18T04:52:30.732Z,62.42
2018-03-18T04:54:59.003Z,62.67
2018-03-18T04:57:27.267Z,64.18
2018-03-18T04:59:55.543Z,64.21
2018-03-18T05:02:23.798Z,62.62
2018-03-18T05:04:52.064Z,62.99
2018-03-18T05:07:20.324Z,62.87
2018-03-18T05:09:48.592Z,63.73
2018-03-18T05:12:16.847Z,63.65
2018-03-18T05:14:45.120Z,63.39
2018-03-18T05:17:13.374Z,63.80
2018-03-18T05:19:41.633Z,64.30
2018-03-18T05:22:09.917Z,65.36
2018-03-18T05:24:38.176Z,64.90
2018-03-18T05:27:06.449Z,65.89
2018-03-18T05:29:35.458Z,65.39
2018-03-18T05:32:03.730Z,65.46
2018-03-18T05:34:32.747Z,66.55
2018-03-18T05:37:01.779Z,66.08
2018-03-18T05:39:30.039Z,66.68
2018-03-18T05:41:59.075Z,68.70
2018-03-18T05:44:27.330Z,67.96
2018-03-18T05:46:56.434Z,67.47
2018-03-18T05:49:25.492Z,68.20
2018-03-18T05:51:53.731Z,66.45
2018-03-18T05:54:21.996Z,66.51
2018-03-18T05:56:50.268Z,65.32
2018-03-18T05:59:19.303Z,64.47
2018-03-18T06:01:47.567Z,64.91
2018-03-18T06:04:15.818Z,64.36
2018-03-18T06:06:44.086Z,63.94
2018-03-18T06:09:13.107Z,64.60
2018-03-18T06:11:41.375Z,64.06
2018-03-18T06:14:10.397Z,64.71
2018-03-18T06:16:38.663Z,63.55
2018-03-18T06:19:07.688Z,63.55
2018-03-18T06:21:35.955Z,62.80
2018-03-18T06:24:04.990Z,61.66
2018-03-18T06:26:33.256Z,62.58
2018-03-18T06:29:02.279Z,62.15
2018-03-18T06:31:30.632Z,62.24
2018-03-18T06:33:58.834Z,62.14
2018-03-18T06:36:27.910Z,61.73
2018-03-18T06:38:56.123Z,61.56
2018-03-18T06:41:24.405Z,61.97
2018-03-18T06:43:52.664Z,61.58
2018-03-18T06:46:20.932Z,60.64
2018-03-18T06:48:49.187Z,60.23
2018-03-18T06:51:18.224Z,59.73
2018-03-18T06:53:46.478Z,57.82
2018-03-18T06:56:15.510Z,58.23
2018-03-18T06:58:43.762Z,58.25
2018-03-18T07:01:12.027Z,59.07
2018-03-18T07:03:40.299Z,59.43
2018-03-18T07:06:08.555Z,57.73
2018-03-18T07:08:36.821Z,58.08
2018-03-18T07:11:05.846Z,58.43
2018-03-18T07:13:34.104Z,58.63
2018-03-18T07:16:02.367Z,57.75
2018-03-18T07:18:30.628Z,58.26
2018-03-18T07:20:58.892Z,58.01
2018-03-18T07:23:27.918Z,57.95
2018-03-18T07:25:56.187Z,57.68
2018-03-18T07:28:25.211Z,58.04
2018-03-18T07:30:53.468Z,58.42
2018-03-18T07:33:21.723Z,58.49
2018-03-18T07:35:49.982Z,57.78
2018-03-18T07:38:18.256Z,56.80
2018-03-18T07:40:46.520Z,57.37
2018-03-18T07:43:15.538Z,57.48
2018-03-18T07:45:44.581Z,56.02
2018-03-18T07:48:12.832Z,56.58
2018-03-18T07:50:41.864Z,56.37
2018-03-18T07:53:10.120Z,55.14
2018-03-18T07:55:39.154Z,53.70
2018-03-18T07:58:07.415Z,56.13
2018-03-18T08:00:36.450Z,54.04
2018-03-18T08:03:05.475Z,54.51
2018-03-18T08:05:33.722Z,52.94
2018-03-18T08:08:02.774Z,53.64
2018-03-18T08:10:31.018Z,55.40
2018-03-18T08:12:59.291Z,53.47
2018-03-18T08:15:27.548Z,54.63
2018-03-18T08:17:55.820Z,56.03
2018-03-18T08:20:24.075Z,53.57
2018-03-18T08:22:52.344Z,54.49
2018-03-18T08:25:21.362Z,54.69
2018-03-18T08:27:50.386Z,54.50
2018-03-18T08:30:18.663Z,53.31
2018-03-18T08:32:46.923Z,54.85
2018-03-18T08:35:15.790Z,53.60
2018-03-18T08:37:44.049Z,53.57
2018-03-18T08:40:12.304Z,54.00
2018-03-18T08:42:40.576Z,54.90
2018-03-18T08:45:08.835Z,53.42
2018-03-18T08:47:37.100Z,50.58
2018-03-18T08:50:05.351Z,52.98
2018-03-18T08:52:33.623Z,50.54
2018-03-18T08:55:01.870Z,49.91
2018-03-18T08:57:30.159Z,49.50
2018-03-18T08:59:58.410Z,50.44
2018-03-18T09:02:26.675Z,48.81
2018-03-18T09:04:54.937Z,50.30
2018-03-18T09:07:23.203Z,49.28
2018-03-18T09:09:51.471Z,51.24
2018-03-18T09:12:20.510Z,49.92
2018-03-18T09:14:48.764Z,50.36
2018-03-18T09:17:17.798Z,50.05
2018-03-18T09:19:46.052Z,51.20
2018-03-18T09:22:14.306Z,51.44
2018-03-18T09:24:42.567Z,49.62
2018-03-18T09:27:10.829Z,49.05
2018-03-18T09:29:39.851Z,49.13
2018-03-18T09:32:08.124Z,47.75
2018-03-18T09:34:37.146Z,49.04
2018-03-18T09:37:05.403Z,47.61
2018-03-18T09:39:34.422Z,50.95
2018-03-18T09:42:03.456Z,49.11
2018-03-18T09:44:31.706Z,49.02
2018-03-18T09:47:00.742Z,48.96
2018-03-18T09:49:28.999Z,49.69
2018-03-18T09:51:57.264Z,50.20
2018-03-18T09:54:25.515Z,48.38
2018-03-18T09:56:53.782Z,49.39
